Veazie, Maine
Current Conditions -  °F | °C
As of 4:53 AM on Wednesday 26 Nov 2014 (Local Time) from KBGR Reporting Station
Scattered Clouds Scattered Clouds  
Wind Chill: 37°   Ceiling: Unl
Heat Index: 40°   Visibility: 10mi
Dew Point: 26°   Wind: 5mph
Humidity: 58%   Direction: 270°W
Pressure: 30.16"   Gusts: NA
Location:  44.8521°N, 68.8311°W
Report Text: KBGR 260953Z 27004KT 10SM SCT200 04/M03 A3016 RMK AO2 SLP213 T00441033
Loading
Personal Weather Stations






























Interactive Weather Map New forecast layout! Learn more

10-Day Weather Forecast

Advertisements
Track Severe Weather on mobile